Time;durP1;ratioP1;P1;durP2;ratioP2;P2;SDS_P1;SDS_P2;PMS_P1;PMS_P2;Temp;Humidity;BMP_temperature;BMP_pressure;BME280_temperature;BME280_humidity;BME280_pressure;Samples;Min_cycle;Max_cycle;Signal;HPM_P1;HPM_P2
2021/05/01 00:02:04;;;;;;;17.42;8.38;;;;;;;11.45;100.00;100633.54;1818916;78;21055;-54
2021/05/01 00:04:32;;;;;;;17.87;8.08;;;;;;;11.44;100.00;100628.66;1818955;78;21039;-55
2021/05/01 00:07:00;;;;;;;16.70;7.80;;;;;;;11.48;100.00;100633.90;1819012;78;21103;-55
2021/05/01 00:09:28;;;;;;;17.73;7.70;;;;;;;11.49;100.00;100628.93;1819030;78;21155;-55
2021/05/01 00:11:55;;;;;;;17.20;7.53;;;;;;;11.53;100.00;100626.52;1819082;78;21391;-55
2021/05/01 00:14:26;;;;;;;15.40;8.25;;;;;;;11.57;100.00;100633.51;1818951;78;21142;-54
2021/05/01 00:16:54;;;;;;;17.37;7.28;;;;;;;11.61;100.00;100633.33;1818986;78;21079;-55
2021/05/01 00:19:22;;;;;;;13.93;7.62;;;;;;;11.66;100.00;100633.14;1818984;78;21070;-55
2021/05/01 00:21:50;;;;;;;20.48;9.18;;;;;;;11.69;100.00;100633.47;1818911;78;21114;-54
2021/05/01 00:24:18;;;;;;;15.55;7.47;;;;;;;11.71;100.00;100632.48;1818934;78;21645;-55
2021/05/01 00:26:45;;;;;;;16.23;8.95;;;;;;;11.72;100.00;100623.48;1818935;78;20885;-54
2021/05/01 00:29:13;;;;;;;17.42;8.03;;;;;;;11.74;100.00;100622.95;1818894;78;21055;-54
2021/05/01 00:31:41;;;;;;;16.10;8.05;;;;;;;11.77;100.00;100624.64;1818933;78;20999;-54
2021/05/01 00:34:09;;;;;;;16.50;8.33;;;;;;;11.79;100.00;100629.47;1818954;78;21130;-54
2021/05/01 00:36:36;;;;;;;16.02;8.30;;;;;;;11.81;100.00;100627.59;1818963;78;21719;-55
2021/05/01 00:39:05;;;;;;;18.45;8.30;;;;;;;11.82;100.00;100630.69;1818944;78;21063;-55
2021/05/01 00:41:33;;;;;;;17.42;8.03;;;;;;;11.82;100.00;100632.48;1818858;78;21091;-55
2021/05/01 00:44:06;;;;;;;19.75;8.03;;;;;;;11.83;100.00;100635.12;1818294;78;21051;-54
2021/05/01 00:46:33;;;;;;;14.10;7.50;;;;;;;11.83;100.00;100629.75;1795474;79;21040;-54
2021/05/01 00:49:01;;;;;;;16.42;8.35;;;;;;;11.84;100.00;100636.00;1809037;79;22273;-54
2021/05/01 00:51:28;;;;;;;15.70;7.67;;;;;;;11.83;100.00;100633.77;1808751;78;21071;-55
2021/05/01 00:53:56;;;;;;;18.25;7.95;;;;;;;11.84;100.00;100631.98;1808857;79;21148;-55
2021/05/01 00:56:23;;;;;;;17.57;7.97;;;;;;;11.85;100.00;100638.61;1811023;77;21174;-55
2021/05/01 00:58:51;;;;;;;18.05;8.88;;;;;;;11.84;100.00;100640.03;1843558;77;21151;-54
2021/05/01 01:01:18;;;;;;;16.52;8.98;;;;;;;11.82;100.00;100643.23;1843590;77;21653;-54
2021/05/01 01:03:48;;;;;;;16.50;7.70;;;;;;;11.77;100.00;100636.73;1843496;77;21032;-54
2021/05/01 01:06:15;;;;;;;13.85;8.13;;;;;;;11.71;100.00;100636.50;1843708;77;21072;-54
2021/05/01 01:08:44;;;;;;;17.02;8.65;;;;;;;11.70;100.00;100629.84;1843592;77;21048;-54
2021/05/01 01:11:12;;;;;;;13.93;7.65;;;;;;;11.69;100.00;100633.47;1843597;77;21064;-54
2021/05/01 01:13:42;;;;;;;20.57;8.65;;;;;;;11.69;100.00;100641.52;1839675;77;21362;-54
2021/05/01 01:16:10;;;;;;;16.75;8.08;;;;;;;11.71;100.00;100656.65;1843597;77;21124;-54
2021/05/01 01:18:38;;;;;;;17.07;8.65;;;;;;;11.74;100.00;100659.20;1843590;77;21152;-54
2021/05/01 01:21:05;;;;;;;13.18;7.45;;;;;;;11.75;100.00;100659.61;1843671;77;21495;-54
2021/05/01 01:23:33;;;;;;;14.55;7.65;;;;;;;11.73;100.00;100657.45;1843604;77;21037;-54
2021/05/01 01:26:01;;;;;;;12.85;8.10;;;;;;;11.71;100.00;100649.05;1843528;77;21709;-54
2021/05/01 01:28:29;;;;;;;18.12;7.95;;;;;;;11.69;100.00;100650.47;1817719;77;21116;-54
2021/05/01 01:30:56;;;;;;;16.20;8.25;;;;;;;11.65;100.00;100650.20;1843597;77;21048;-54
2021/05/01 01:33:24;;;;;;;12.80;8.40;;;;;;;11.58;100.00;100646.88;1843618;77;21040;-54
2021/05/01 01:35:54;;;;;;;15.20;8.38;;;;;;;11.55;100.00;100652.38;1843572;77;21056;-54
2021/05/01 01:38:21;;;;;;;17.32;8.00;;;;;;;11.53;100.00;100645.31;1843658;77;21176;-54
2021/05/01 01:40:48;;;;;;;14.58;7.53;;;;;;;11.53;100.00;100652.03;1843468;77;21213;-54
2021/05/01 01:43:16;;;;;;;17.98;8.33;;;;;;;11.54;100.00;100661.38;1843661;77;21037;-55
2021/05/01 01:45:43;;;;;;;14.28;8.28;;;;;;;11.54;100.00;100656.00;1848559;77;21210;-54
2021/05/01 01:48:11;;;;;;;14.90;8.15;;;;;;;11.54;100.00;100665.86;1851941;77;21179;-54
2021/05/01 01:50:38;;;;;;;13.68;7.75;;;;;;;11.50;100.00;100662.45;1851899;77;21681;-54
2021/05/01 01:53:06;;;;;;;16.07;8.38;;;;;;;11.50;100.00;100670.50;1851786;77;21000;-55
2021/05/01 01:55:35;;;;;;;13.40;7.83;;;;;;;11.49;100.00;100671.89;1823891;77;20984;-54
2021/05/01 01:58:03;;;;;;;14.43;7.53;;;;;;;11.45;100.00;100672.02;1827355;77;21111;-54
2021/05/01 02:00:31;;;;;;;15.63;8.15;;;;;;;11.43;100.00;100673.89;1819354;78;21146;-54
2021/05/01 02:02:59;;;;;;;16.80;7.65;;;;;;;11.40;100.00;100671.33;1819294;78;21349;-55
2021/05/01 02:05:27;;;;;;;22.27;8.45;;;;;;;11.39;100.00;100681.66;1819249;78;21019;-54
2021/05/01 02:07:56;;;;;;;18.30;8.65;;;;;;;11.37;100.00;100682.16;1819215;78;21075;-55
2021/05/01 02:10:24;;;;;;;17.48;7.72;;;;;;;11.36;100.00;100677.73;1819294;78;21036;-54
2021/05/01 02:12:52;;;;;;;16.93;8.23;;;;;;;11.36;100.00;100693.84;1819289;78;21047;-54
2021/05/01 02:15:22;;;;;;;17.23;7.53;;;;;;;11.37;100.00;100699.61;1819353;78;20984;-54
2021/05/01 02:17:54;;;;;;;14.13;8.28;;;;;;;11.37;100.00;100700.95;1819240;78;21549;-54
2021/05/01 02:20:25;;;;;;;14.65;7.83;;;;;;;11.38;100.00;100709.41;1819457;78;21521;-54
2021/05/01 02:22:53;;;;;;;18.55;8.85;;;;;;;11.36;100.00;100715.80;1819131;78;21000;-54
2021/05/01 02:25:21;;;;;;;20.85;9.88;;;;;;;11.31;100.00;100718.64;1819246;78;21095;-55
2021/05/01 02:27:49;;;;;;;21.45;9.18;;;;;;;11.28;100.00;100714.74;1819371;78;21529;-54
2021/05/01 02:30:20;;;;;;;20.85;9.00;;;;;;;11.24;100.00;100710.44;1819146;78;21142;-54
2021/05/01 02:32:47;;;;;;;12.90;8.63;;;;;;;11.22;100.00;100714.50;1819348;78;21146;-54
2021/05/01 02:35:19;;;;;;;14.95;9.10;;;;;;;11.21;100.00;100719.95;1819289;78;21031;-54
2021/05/01 02:37:47;;;;;;;17.20;9.50;;;;;;;11.20;100.00;100711.48;1819337;78;21035;-54
2021/05/01 02:40:16;;;;;;;19.80;9.48;;;;;;;11.20;100.00;100714.17;1819306;78;21659;-54
2021/05/01 02:42:44;;;;;;;19.23;9.50;;;;;;;11.20;100.00;100718.20;1819126;78;21063;-54
2021/05/01 02:45:14;;;;;;;20.43;9.28;;;;;;;11.20;100.00;100718.20;1819172;78;21066;-54
2021/05/01 02:47:42;;;;;;;15.68;9.45;;;;;;;11.18;100.00;100719.13;1819009;78;21082;-54
2021/05/01 02:50:11;;;;;;;17.30;9.33;;;;;;;11.17;100.00;100731.26;1819072;78;21154;-54
2021/05/01 02:52:39;;;;;;;17.75;9.53;;;;;;;11.14;100.00;100729.55;1818917;78;21362;-54
2021/05/01 02:55:08;;;;;;;17.98;9.58;;;;;;;11.11;100.00;100726.98;1819033;78;21035;-54
2021/05/01 02:57:37;;;;;;;18.42;8.65;;;;;;;11.09;100.00;100729.34;1835526;77;21046;-54
2021/05/01 03:00:13;;;;;;;13.38;8.40;;;;;;;11.09;100.00;100732.88;1848567;77;21056;-54
2021/05/01 03:02:47;;;;;;;19.87;8.30;;;;;;;11.17;100.00;100730.80;1875719;76;28105;-54
2021/05/01 03:05:16;;;;;;;19.80;9.13;;;;;;;11.16;100.00;100736.22;1816911;79;20992;-54
2021/05/01 03:07:44;;;;;;;17.92;9.80;;;;;;;11.18;100.00;100740.60;1816882;79;21194;-54
2021/05/01 03:10:15;;;;;;;20.68;9.78;;;;;;;11.20;100.00;100745.03;1816795;79;20995;-54
2021/05/01 03:12:42;;;;;;;19.27;9.60;;;;;;;11.26;100.00;100751.02;1816993;79;21530;-55
2021/05/01 03:15:12;;;;;;;17.40;9.10;;;;;;;11.33;100.00;100751.67;1816789;79;21015;-54
2021/05/01 03:17:41;;;;;;;20.35;8.85;;;;;;;11.43;100.00;100753.08;1816986;79;21547;-54
2021/05/01 03:20:11;;;;;;;15.32;8.58;;;;;;;11.52;100.00;100754.98;1816840;78;21578;-54
2021/05/01 03:22:39;;;;;;;16.30;8.78;;;;;;;11.59;100.00;100748.44;1817004;79;21486;-54
2021/05/01 03:25:09;;;;;;;17.42;8.40;;;;;;;11.67;100.00;100750.37;1816896;78;21700;-54
2021/05/01 03:27:36;;;;;;;16.90;8.88;;;;;;;11.75;100.00;100752.27;1817014;79;21507;-54
2021/05/01 03:30:06;;;;;;;21.10;9.40;;;;;;;11.86;100.00;100748.30;1816849;79;21113;-54
2021/05/01 03:32:33;;;;;;;24.57;9.45;;;;;;;11.92;100.00;100753.41;1816874;79;21358;-54
2021/05/01 03:35:01;;;;;;;24.05;10.15;;;;;;;11.98;100.00;100755.84;1816778;78;20972;-55
2021/05/01 03:37:28;;;;;;;16.90;8.98;;;;;;;12.09;100.00;100757.26;1816881;79;20904;-55
2021/05/01 03:39:56;;;;;;;18.52;8.70;;;;;;;12.18;100.00;100753.72;1816826;78;20932;-54
2021/05/01 03:42:24;;;;;;;15.30;8.50;;;;;;;12.30;100.00;100757.71;1816833;79;21090;-55
2021/05/01 03:44:51;;;;;;;24.43;10.53;;;;;;;12.45;100.00;100752.59;1816795;78;21690;-54
2021/05/01 03:47:21;;;;;;;17.23;8.10;;;;;;;12.59;100.00;100752.89;1816721;79;21122;-55
2021/05/01 03:49:48;;;;;;;15.15;7.65;;;;;;;12.69;100.00;100755.16;1816952;79;21071;-56
2021/05/01 03:52:16;;;;;;;21.97;8.30;;;;;;;12.69;100.00;100762.78;1816710;79;21396;-54
2021/05/01 03:54:44;;;;;;;16.37;8.28;;;;;;;12.73;100.00;100767.08;1816948;78;21043;-54
2021/05/01 03:57:12;;;;;;;19.87;8.50;;;;;;;12.76;100.00;100762.05;1811754;79;21350;-54
2021/05/01 03:59:40;;;;;;;20.45;8.48;;;;;;;12.83;100.00;100758.13;1738164;82;21190;-55
2021/05/01 04:02:07;;;;;;;14.58;8.13;;;;;;;12.98;100.00;100756.56;1731587;81;20937;-54
2021/05/01 04:04:35;;;;;;;17.60;8.50;;;;;;;13.17;100.00;100763.80;1757926;81;21066;-55
2021/05/01 04:07:05;;;;;;;22.70;8.75;;;;;;;13.30;100.00;100770.84;1727777;82;20957;-55
2021/05/01 04:09:33;;;;;;;29.05;9.73;;;;;;;13.44;100.00;100787.28;1727926;83;21603;-54
2021/05/01 04:12:01;;;;;;;27.52;10.45;;;;;;;13.58;100.00;100789.33;1727833;83;21234;-54
2021/05/01 04:14:29;;;;;;;21.10;9.78;;;;;;;13.70;100.00;100789.22;1731425;82;21159;-55
2021/05/01 04:16:58;;;;;;;21.23;8.73;;;;;;;13.86;100.00;100801.97;1727208;83;21163;-55
2021/05/01 04:19:26;;;;;;;15.55;8.93;;;;;;;13.97;100.00;100810.39;1731413;82;21122;-55
2021/05/01 04:21:53;;;;;;;34.18;10.98;;;;;;;14.10;100.00;100815.20;1727215;83;21726;-55
2021/05/01 04:24:21;;;;;;;35.43;11.00;;;;;;;14.21;100.00;100818.23;1731353;82;21171;-55
2021/05/01 04:26:48;;;;;;;47.27;12.25;;;;;;;14.36;99.60;100818.42;1727233;83;21423;-55
2021/05/01 04:29:16;;;;;;;66.53;12.78;;;;;;;14.50;98.60;100831.22;1731353;82;21088;-55
2021/05/01 04:31:44;;;;;;;53.28;12.05;;;;;;;14.67;98.28;100824.95;1727278;83;21111;-55
2021/05/01 04:34:11;;;;;;;45.83;12.35;;;;;;;14.88;97.25;100825.23;1731374;82;21697;-55
2021/05/01 04:36:39;;;;;;;41.23;12.78;;;;;;;15.05;95.28;100827.53;1727155;83;21654;-55
2021/05/01 04:39:07;;;;;;;39.40;12.25;;;;;;;15.15;93.67;100825.22;1731416;82;21092;-55
2021/05/01 04:41:35;;;;;;;41.77;11.75;;;;;;;15.21;93.14;100826.73;1727150;83;21072;-55
2021/05/01 04:44:04;;;;;;;25.77;11.38;;;;;;;15.29;92.54;100825.83;1731401;82;21143;-55
2021/05/01 04:46:31;;;;;;;39.33;11.53;;;;;;;15.38;92.18;100826.70;1727254;83;22245;-56
2021/05/01 04:48:59;;;;;;;33.28;12.00;;;;;;;15.51;91.95;100820.62;1731364;82;21080;-61
2021/05/01 04:51:27;;;;;;;31.75;11.65;;;;;;;15.63;90.95;100815.91;1727155;83;21057;-55
2021/05/01 04:53:54;;;;;;;31.97;11.80;;;;;;;15.73;90.07;100811.72;1731392;82;20950;-54
2021/05/01 04:56:22;;;;;;;23.73;10.40;;;;;;;15.84;89.59;100820.58;1728152;82;21165;-55
2021/05/01 04:58:51;;;;;;;23.85;9.63;;;;;;;15.96;89.34;100816.84;1813751;79;21655;-55
2021/05/01 05:01:18;;;;;;;21.50;9.75;;;;;;;16.11;88.62;100813.73;1815395;78;21051;-54
2021/05/01 05:03:46;;;;;;;35.55;12.13;;;;;;;16.25;87.75;100808.88;1828054;78;21069;-54
2021/05/01 05:06:14;;;;;;;27.35;11.60;;;;;;;16.40;87.25;100812.51;1828057;78;21111;-55
2021/05/01 05:08:41;;;;;;;26.48;12.98;;;;;;;16.54;86.53;100812.58;1828069;78;21112;-55
2021/05/01 05:11:09;;;;;;;26.23;11.63;;;;;;;16.65;85.95;100811.94;1828041;78;21606;-55
2021/05/01 05:13:36;;;;;;;36.40;11.55;;;;;;;16.83;85.22;100808.59;1828008;78;21485;-55
2021/05/01 05:16:04;;;;;;;21.95;10.10;;;;;;;16.94;83.76;100809.80;1828157;78;21692;-55
2021/05/01 05:18:32;;;;;;;20.75;10.05;;;;;;;17.00;83.06;100806.24;1827989;78;20978;-54
2021/05/01 05:21:00;;;;;;;29.25;10.95;;;;;;;17.09;82.44;100811.58;1828074;78;21006;-54
2021/05/01 05:23:28;;;;;;;24.32;12.28;;;;;;;17.18;81.83;100811.50;1827986;78;22484;-56
2021/05/01 05:25:55;;;;;;;29.70;12.93;;;;;;;17.26;81.10;100823.22;1827989;78;21108;-54
2021/05/01 05:28:24;;;;;;;21.37;12.50;;;;;;;17.25;80.93;100828.25;1827971;78;21120;-54
2021/05/01 05:30:52;;;;;;;36.60;19.32;;;;;;;17.26;80.72;100825.92;1828040;78;21097;-55
2021/05/01 05:33:19;;;;;;;48.17;26.37;;;;;;;17.27;81.17;100824.95;1827985;78;20910;-55
2021/05/01 05:35:48;;;;;;;88.52;50.52;;;;;;;17.36;81.34;100824.41;1828005;78;21358;-55
2021/05/01 05:38:16;;;;;;;103.60;60.05;;;;;;;17.53;80.85;100821.09;1828007;78;20949;-55
2021/05/01 05:40:44;;;;;;;115.62;68.35;;;;;;;17.64;80.47;100824.00;1827997;78;20993;-55
2021/05/01 05:43:11;;;;;;;90.32;53.17;;;;;;;17.76;80.17;100829.13;1827972;78;21123;-55
2021/05/01 05:45:41;;;;;;;35.25;20.62;;;;;;;17.88;79.81;100831.03;1828017;78;21045;-54
2021/05/01 05:48:08;;;;;;;19.95;10.95;;;;;;;17.97;78.74;100832.27;1828045;78;21129;-56
2021/05/01 05:50:36;;;;;;;15.70;8.80;;;;;;;18.09;76.84;100824.36;1827909;78;20940;-55
2021/05/01 05:53:04;;;;;;;19.85;8.95;;;;;;;18.17;74.80;100830.13;1828051;78;21096;-55
2021/05/01 05:55:32;;;;;;;19.15;10.32;;;;;;;18.21;72.54;100822.67;1827922;78;21136;-55
2021/05/01 05:58:00;;;;;;;19.30;9.20;;;;;;;18.21;72.35;100823.53;1802334;78;21066;-55
2021/05/01 06:00:27;;;;;;;16.85;10.08;;;;;;;18.21;72.08;100827.59;1792362;80;21352;-56
2021/05/01 06:02:59;;;;;;;16.45;8.75;;;;;;;18.20;72.18;100823.14;1773663;80;21077;-55
2021/05/01 06:05:48;;;;;;;26.73;9.80;;;;;;;18.22;71.93;100829.84;1764575;81;21159;-55
2021/05/01 06:08:16;;;;;;;29.00;10.10;;;;;;;18.25;71.56;100829.63;1734821;81;21135;-56
2021/05/01 06:10:44;;;;;;;22.32;9.98;;;;;;;18.25;71.67;100830.52;1764564;81;21134;-56
2021/05/01 06:13:13;;;;;;;17.10;9.60;;;;;;;18.30;71.41;100834.27;1764463;81;21356;-56
2021/05/01 06:15:41;;;;;;;22.67;10.70;;;;;;;18.35;70.95;100842.11;1764482;81;21135;-56
2021/05/01 06:18:10;;;;;;;17.40;10.50;;;;;;;18.36;70.27;100847.92;1764522;81;21064;-56
2021/05/01 06:20:39;;;;;;;17.87;10.30;;;;;;;18.25;70.41;100841.38;1764538;81;21044;-57
2021/05/01 06:23:07;;;;;;;24.67;11.12;;;;;;;18.15;70.50;100837.51;1764496;81;21076;-56
2021/05/01 06:25:35;;;;;;;18.55;10.08;;;;;;;18.12;70.63;100849.92;1764463;81;21718;-57
2021/05/01 06:28:03;;;;;;;17.05;9.30;;;;;;;18.09;70.91;100862.34;1764489;81;21012;-57
2021/05/01 06:30:31;;;;;;;17.27;10.40;;;;;;;18.05;70.95;100857.59;1764530;81;21130;-55
2021/05/01 06:33:02;;;;;;;17.85;10.55;;;;;;;17.92;71.13;100854.77;1764504;81;21082;-55
2021/05/01 06:35:29;;;;;;;22.75;11.00;;;;;;;17.80;71.37;100861.85;1764551;81;21060;-55
2021/05/01 06:37:57;;;;;;;17.82;10.68;;;;;;;17.65;71.62;100856.92;1735213;81;21380;-56
2021/05/01 06:40:31;;;;;;;23.47;11.75;;;;;;;17.55;72.30;100855.74;1764434;81;21130;-55
2021/05/01 06:43:04;;;;;;;23.75;11.55;;;;;;;17.49;72.57;100866.98;1763584;81;21186;-55
2021/05/01 06:45:29;;;;;;;19.95;11.00;;;;;;;17.46;72.68;100864.85;1763790;81;21089;-55
2021/05/01 06:48:04;;;;;;;24.63;11.83;;;;;;;17.43;72.86;100860.98;1764588;81;21088;-55
2021/05/01 06:50:32;;;;;;;22.45;10.72;;;;;;;17.42;73.00;100860.59;1785232;79;26391;-55
2021/05/01 06:53:01;;;;;;;22.15;12.58;;;;;;;17.43;72.92;100863.69;1797507;79;20992;-55
2021/05/01 06:55:31;;;;;;;27.25;11.53;;;;;;;17.43;73.13;100857.38;1797507;79;21147;-55
2021/05/01 06:58:01;;;;;;;45.12;12.53;;;;;;;17.50;73.11;100855.17;1786420;79;21039;-55
2021/05/01 07:00:29;;;;;;;56.20;12.82;;;;;;;17.51;72.97;100855.55;1782320;80;21054;-55
2021/05/01 07:03:05;;;;;;;69.92;13.62;;;;;;;17.47;73.17;100865.23;1787644;79;21366;-55
2021/05/01 07:05:34;;;;;;;54.33;13.18;;;;;;;17.50;73.29;100864.19;1792557;80;21106;-55
2021/05/01 07:08:02;;;;;;;27.05;11.33;;;;;;;17.56;73.32;100868.33;1792598;80;21119;-55
2021/05/01 07:10:30;;;;;;;22.05;10.58;;;;;;;17.65;72.92;100865.05;1792663;80;21182;-55
2021/05/01 07:12:59;;;;;;;21.75;12.10;;;;;;;17.67;72.71;100861.77;1727156;83;21495;-55
2021/05/01 07:15:28;;;;;;;19.62;10.63;;;;;;;17.71;72.49;100870.08;1731248;82;21131;-55
2021/05/01 07:17:56;;;;;;;21.55;11.88;;;;;;;17.73;72.55;100875.42;1727107;83;21143;-54
2021/05/01 07:20:24;;;;;;;25.00;12.70;;;;;;;17.80;72.33;100875.91;1731263;82;21156;-55
2021/05/01 07:22:53;;;;;;;20.70;12.23;;;;;;;17.85;72.23;100877.34;1727072;83;21166;-55
2021/05/01 07:25:23;;;;;;;23.20;12.18;;;;;;;17.87;71.69;100879.97;1730749;82;21171;-55
2021/05/01 07:28:07;;;;;;;21.12;12.37;;;;;;;17.84;71.81;100881.52;1727116;83;21426;-57
2021/05/01 07:30:41;;;;;;;18.42;12.65;;;;;;;17.82;71.78;100878.03;1703096;82;21080;-56
2021/05/01 07:33:24;;;;;;;20.50;11.70;;;;;;;17.77;71.72;100876.97;1727079;83;21178;-55
2021/05/01 07:35:58;;;;;;;19.55;12.45;;;;;;;17.70;71.83;100888.67;1731279;82;21139;-57
2021/05/01 07:38:26;;;;;;;25.50;13.40;;;;;;;17.65;71.94;100891.28;1705516;83;21064;-55
2021/05/01 07:40:54;;;;;;;23.02;12.70;;;;;;;17.58;72.36;100896.24;1731196;82;21327;-56
2021/05/01 07:43:22;;;;;;;24.10;12.75;;;;;;;17.57;72.79;100889.05;1727056;83;21136;-55
2021/05/01 07:45:53;;;;;;;23.42;12.85;;;;;;;17.64;72.64;100898.56;1731261;82;21139;-55
2021/05/01 07:48:22;;;;;;;25.00;12.98;;;;;;;17.66;72.41;100887.13;1727218;83;21206;-56
2021/05/01 07:50:50;;;;;;;22.95;14.07;;;;;;;17.68;72.29;100889.73;1731477;82;21604;-56
2021/05/01 07:53:20;;;;;;;20.25;12.63;;;;;;;17.68;72.27;100892.44;1727231;83;21201;-55
2021/05/01 07:55:48;;;;;;;21.35;13.03;;;;;;;17.67;72.37;100892.94;1731445;82;21064;-55
2021/05/01 07:58:16;;;;;;;22.93;14.00;;;;;;;17.67;72.27;100892.94;1705418;83;21080;-56
2021/05/01 08:00:46;;;;;;;25.60;15.15;;;;;;;17.68;72.25;100900.57;1755820;81;21121;-55
2021/05/01 08:03:15;;;;;;;23.22;14.25;;;;;;;17.63;72.47;100894.58;1738761;82;21138;-56
2021/05/01 08:05:42;;;;;;;24.35;13.90;;;;;;;17.61;72.71;100891.48;1782510;79;21362;-55
2021/05/01 08:08:10;;;;;;;29.10;14.45;;;;;;;17.56;72.96;100896.33;1749328;82;21197;-55
2021/05/01 08:10:38;;;;;;;21.73;14.10;;;;;;;17.57;73.29;100894.47;1816296;79;20928;-55
2021/05/01 08:13:06;;;;;;;27.82;15.03;;;;;;;17.63;73.28;100891.39;1749270;82;21227;-55
2021/05/01 08:15:34;;;;;;;19.73;13.13;;;;;;;17.66;73.10;100897.98;1749357;82;21111;-55
2021/05/01 08:18:02;;;;;;;22.02;13.15;;;;;;;17.67;72.96;100897.01;1749329;82;21381;-55
2021/05/01 08:20:30;;;;;;;23.52;13.83;;;;;;;17.68;72.91;100893.80;1816154;79;21056;-55
2021/05/01 08:22:57;;;;;;;20.72;12.37;;;;;;;17.68;72.76;100891.08;1749345;82;21509;-55
2021/05/01 08:25:25;;;;;;;20.10;12.82;;;;;;;17.62;72.83;100896.43;1816360;79;22275;-55
2021/05/01 08:27:54;;;;;;;22.90;12.63;;;;;;;17.58;72.95;100897.59;1816345;79;21189;-55
2021/05/01 08:30:21;;;;;;;19.75;13.50;;;;;;;17.50;73.09;100906.67;1749235;82;21715;-55
2021/05/01 08:32:49;;;;;;;26.30;14.53;;;;;;;17.42;73.61;100910.73;1816202;79;21150;-55
2021/05/01 08:35:18;;;;;;;22.32;13.28;;;;;;;17.39;73.69;100915.46;1816258;79;21110;-55
2021/05/01 08:37:45;;;;;;;24.10;12.90;;;;;;;17.32;74.00;100920.38;1749325;82;21122;-55
2021/05/01 08:40:14;;;;;;;23.25;11.97;;;;;;;17.28;74.15;100916.11;1816204;79;21110;-55
2021/05/01 08:42:43;;;;;;;22.17;14.38;;;;;;;17.30;74.43;100922.31;1749240;82;21199;-55
2021/05/01 08:45:13;;;;;;;26.50;15.13;;;;;;;17.37;74.45;100922.34;1816138;79;21134;-55
2021/05/01 08:47:46;;;;;;;21.75;13.50;;;;;;;17.41;74.37;100920.30;1749214;82;21181;-55
2021/05/01 08:50:30;;;;;;;19.40;13.32;;;;;;;17.39;74.42;100927.19;1815130;79;21472;-55
2021/05/01 08:52:59;;;;;;;27.10;13.58;;;;;;;17.33;74.67;100924.83;1749301;82;21047;-55
2021/05/01 08:55:34;;;;;;;23.92;13.60;;;;;;;17.28;74.98;100929.20;1749258;82;21205;-55
2021/05/01 08:58:03;;;;;;;;;;;;;;;17.28;75.04;100931.02;1755982;81;21155;-55
2021/05/01 09:00:31;;;;;;;23.12;14.30;;;;;;;17.27;75.11;100931.98;1785959;80;20250;-55
2021/05/01 09:03:08;;;;;;;28.52;14.47;;;;;;;17.31;75.31;100928.11;1783497;80;21080;-55
2021/05/01 09:05:37;;;;;;;24.87;15.10;;;;;;;17.40;75.58;100923.98;1777670;80;21060;-55
2021/05/01 09:08:07;;;;;;;28.40;14.78;;;;;;;17.52;75.36;100921.00;1777739;80;21248;-55
2021/05/01 09:10:46;;;;;;;19.90;13.18;;;;;;;17.59;75.00;100914.25;1777590;80;21203;-55
2021/05/01 09:13:27;;;;;;;21.60;12.70;;;;;;;17.64;75.07;100922.07;1777756;80;21564;-55
2021/05/01 09:16:05;;;;;;;21.33;13.05;;;;;;;17.69;75.05;100922.18;1777755;80;21060;-55
2021/05/01 09:18:53;;;;;;;23.05;15.78;;;;;;;17.78;74.85;100923.45;1777638;80;21132;-55
2021/05/01 09:21:22;;;;;;;23.25;14.95;;;;;;;17.82;74.91;100930.92;1777109;80;21551;-55
2021/05/01 09:23:50;;;;;;;20.92;14.40;;;;;;;17.82;74.91;100926.34;1813477;79;21061;-54
2021/05/01 09:26:22;;;;;;;25.35;15.05;;;;;;;17.86;74.59;100922.97;1813659;79;21063;-54
2021/05/01 09:28:51;;;;;;;19.07;12.43;;;;;;;17.87;73.90;100928.78;1810777;79;21146;-54
2021/05/01 09:31:19;;;;;;;18.52;10.90;;;;;;;17.86;73.23;100928.39;1813640;79;21109;-55
2021/05/01 09:33:51;;;;;;;20.23;11.30;;;;;;;17.82;72.98;100933.62;1813609;79;21192;-55
2021/05/01 09:36:22;;;;;;;26.10;12.55;;;;;;;17.76;73.25;100937.09;1813513;79;21471;-55
2021/05/01 09:39:06;;;;;;;16.25;11.38;;;;;;;17.71;73.56;100933.80;1813352;79;21089;-55
2021/05/01 09:41:42;;;;;;;18.80;11.65;;;;;;;17.67;73.55;100930.89;1813563;79;21125;-55
2021/05/01 09:44:15;;;;;;;20.32;11.63;;;;;;;17.60;73.87;100929.55;1813824;79;22480;-55
2021/05/01 09:46:47;;;;;;;23.27;12.15;;;;;;;17.57;74.05;100932.41;1813554;79;21648;-55
2021/05/01 09:49:29;;;;;;;17.57;10.55;;;;;;;17.51;74.18;100932.80;1813494;79;21057;-54
2021/05/01 09:52:03;;;;;;;14.18;9.00;;;;;;;17.49;74.24;100940.16;1813612;79;21105;-55
2021/05/01 09:54:32;;;;;;;18.70;9.75;;;;;;;17.47;74.22;100934.86;1813038;79;21198;-54
2021/05/01 09:57:02;;;;;;;21.02;10.80;;;;;;;17.47;74.21;100938.42;1800906;79;21444;-56
2021/05/01 09:59:41;;;;;;;21.80;11.00;;;;;;;17.45;74.22;100939.47;1773233;81;22099;-55
2021/05/01 10:02:14;;;;;;;18.82;10.63;;;;;;;17.39;74.50;100937.14;1773238;81;21133;-55
2021/05/01 10:04:44;;;;;;;15.85;9.75;;;;;;;17.36;74.69;100936.86;1765855;80;21131;-56
2021/05/01 10:07:13;;;;;;;17.95;9.43;;;;;;;17.35;74.74;100932.37;1733869;81;21131;-56
2021/05/01 10:09:42;;;;;;;17.27;9.05;;;;;;;17.36;75.05;100932.80;1764536;81;21103;-55
2021/05/01 10:12:15;;;;;;;15.90;8.33;;;;;;;17.42;75.23;100929.70;1764608;81;21214;-55
2021/05/01 10:14:53;;;;;;;14.65;8.35;;;;;;;17.46;74.46;100923.12;1764593;81;21492;-55
2021/05/01 10:17:29;;;;;;;14.55;8.48;;;;;;;17.37;74.61;100920.11;1764597;80;21171;-55
2021/05/01 10:20:05;;;;;;;14.68;8.13;;;;;;;17.30;74.94;100919.60;1764549;81;21111;-55
2021/05/01 10:22:40;;;;;;;16.30;7.65;;;;;;;17.29;75.38;100928.70;1735578;81;21158;-55
2021/05/01 10:25:20;;;;;;;11.50;7.95;;;;;;;17.29;75.63;100917.86;1764678;80;21500;-55
2021/05/01 10:27:59;;;;;;;12.70;7.47;;;;;;;17.28;75.83;100917.00;1764432;81;21083;-55
2021/05/01 10:30:41;;;;;;;14.90;7.95;;;;;;;17.24;76.01;100919.98;1764548;81;21123;-55
2021/05/01 10:33:33;;;;;;;19.12;8.08;;;;;;;17.17;76.61;100914.94;1763714;81;21147;-55
2021/05/01 10:36:20;;;;;;;15.30;7.50;;;;;;;17.13;77.31;100913.39;1764524;81;21135;-56
2021/05/01 10:39:06;;;;;;;17.48;7.40;;;;;;;17.14;77.51;100922.38;1764551;81;21191;-56
2021/05/01 10:41:35;;;;;;;15.15;7.70;;;;;;;17.17;77.83;100919.47;1764494;80;21194;-56
2021/05/01 10:44:06;;;;;;;15.53;8.50;;;;;;;17.24;77.81;100907.32;1764518;81;21186;-56
2021/05/01 10:46:42;;;;;;;18.60;9.25;;;;;;;17.24;77.56;100905.08;1764408;81;21138;-56
2021/05/01 10:49:11;;;;;;;15.90;8.40;;;;;;;17.20;77.86;100910.30;1764546;81;20921;-55
2021/05/01 10:51:43;;;;;;;12.75;7.95;;;;;;;17.16;78.54;100910.48;1764584;81;21688;-56
2021/05/01 10:54:17;;;;;;;13.40;8.30;;;;;;;17.17;78.97;100909.52;1764665;81;21544;-55
2021/05/01 14:07:40;;;;;;;16.17;9.43;;;;;;;17.22;77.52;100809.48;1739745;82;21470;-55
2021/05/01 14:10:13;;;;;;;14.33;10.13;;;;;;;17.15;77.81;100818.47;1741629;82;21098;-55
2021/05/01 14:12:41;;;;;;;17.37;10.05;;;;;;;17.11;78.05;100820.98;1741778;82;21178;-55
2021/05/01 14:15:18;;;;;;;16.60;9.90;;;;;;;17.03;78.28;100817.38;1741848;82;21105;-55
2021/05/01 14:17:46;;;;;;;11.60;8.03;;;;;;;16.99;78.40;100824.81;1741405;82;21055;-55
2021/05/01 14:20:16;;;;;;;14.63;9.23;;;;;;;16.92;78.59;100804.96;1741753;82;21192;-55
2021/05/01 14:22:48;;;;;;;14.60;9.30;;;;;;;16.87;78.76;100809.30;1741424;82;21126;-55
2021/05/01 14:25:16;;;;;;;16.82;9.70;;;;;;;16.82;79.17;100801.94;1741599;82;21146;-55
2021/05/01 14:27:48;;;;;;;13.38;9.13;;;;;;;16.80;79.30;100806.08;1741479;82;21082;-55
2021/05/01 14:30:50;;;;;;;12.63;9.20;;;;;;;16.81;79.21;100805.12;1741074;82;21468;-56
2021/05/01 14:33:08;;;;;;;14.50;8.80;;;;;;;16.81;79.15;100806.47;1740193;82;21205;-55